Time;durP1;ratioP1;P1;durP2;ratioP2;P2;SDS_P1;SDS_P2;PMS_P1;PMS_P2;Temp;Humidity;BMP_temperature;BMP_pressure;BME280_temperature;BME280_humidity;BME280_pressure;Samples;Min_cycle;Max_cycle;Signal;HPM_P1;HPM_P2
2022/06/06 00:00:15;;;;;;;1.10;1.00;;;20.30;99.90;;;;;;5025529;28;20488;-81
2022/06/06 00:02:46;;;;;;;1.67;1.20;;;20.30;99.90;;;;;;5016494;28;20473;-81
2022/06/06 00:05:15;;;;;;;1.30;1.30;;;20.40;99.90;;;;;;5017483;28;20466;-81
2022/06/06 00:07:43;;;;;;;1.47;0.90;;;20.40;99.90;;;;;;5025349;28;20453;-80
2022/06/06 00:10:12;;;;;;;1.57;1.10;;;20.40;99.90;;;;;;5028001;28;20449;-81
2022/06/06 00:12:40;;;;;;;2.07;1.00;;;20.40;99.90;;;;;;5019966;28;20838;-80
2022/06/06 00:15:10;;;;;;;1.07;0.97;;;20.40;99.90;;;;;;5020833;28;20457;-81
2022/06/06 00:17:38;;;;;;;1.33;1.00;;;20.50;99.90;;;;;;5030284;28;20463;-80
2022/06/06 00:20:09;;;;;;;1.40;1.30;;;20.60;99.90;;;;;;5022012;28;20870;-81
2022/06/06 00:22:38;;;;;;;1.20;1.10;;;20.70;99.90;;;;;;5016053;28;20850;-80
2022/06/06 00:25:07;;;;;;;1.20;1.10;;;20.60;99.90;;;;;;5017451;28;20531;-81
2022/06/06 00:27:36;;;;;;;1.87;0.90;;;20.70;99.90;;;;;;5016278;28;20476;-81
2022/06/06 00:30:05;;;;;;;1.40;1.30;;;20.70;99.90;;;;;;5015797;28;20472;-80
2022/06/06 00:35:20;;;;;;;1.83;1.20;;;20.60;99.90;;;;;;5021008;28;20472;-81
2022/06/06 00:37:49;;;;;;;1.30;1.20;;;20.60;99.90;;;;;;5025840;28;20499;-81
2022/06/06 00:40:21;;;;;;;1.27;1.17;;;20.50;99.90;;;;;;5013715;28;20802;-81
2022/06/06 00:42:49;;;;;;;3.10;2.00;;;20.50;99.90;;;;;;5016536;28;20538;-82
2022/06/06 00:45:33;;;;;;;1.30;1.20;;;20.40;99.90;;;;;;5020786;28;21276;-81
2022/06/06 00:48:17;;;;;;;1.23;1.00;;;20.30;99.90;;;;;;5018230;28;20821;-81
2022/06/06 00:50:57;;;;;;;1.73;1.63;;;20.20;99.90;;;;;;5017592;28;20509;-81
2022/06/06 00:53:32;;;;;;;1.67;1.10;;;20.10;99.90;;;;;;5020273;28;20487;-81
2022/06/06 00:56:06;;;;;;;1.40;1.30;;;20.10;99.90;;;;;;5023312;28;20465;-80
2022/06/06 00:58:37;;;;;;;1.17;1.10;;;20.20;99.90;;;;;;5024703;28;20457;-80
2022/06/06 01:01:05;;;;;;;1.40;1.30;;;20.10;99.90;;;;;;5015955;28;20459;-81
2022/06/06 01:03:37;;;;;;;2.13;1.40;;;20.10;99.90;;;;;;5019281;28;20482;-81
2022/06/06 01:06:12;;;;;;;1.50;1.40;;;20.20;99.90;;;;;;5034521;28;21310;-81
2022/06/06 01:08:42;;;;;;;2.37;1.20;;;20.30;99.90;;;;;;5014875;28;20502;-80
2022/06/06 01:11:10;;;;;;;1.60;1.40;;;20.20;99.90;;;;;;5016460;28;20436;-81
2022/06/06 01:13:41;;;;;;;1.37;1.30;;;20.10;99.90;;;;;;5016870;28;20469;-80
2022/06/06 01:16:25;;;;;;;1.43;1.33;;;20.00;99.90;;;;;;5029858;28;20489;-80
2022/06/06 01:19:07;;;;;;;1.30;1.00;;;20.10;99.90;;;;;;5032211;28;20859;-81
2022/06/06 01:22:05;;;;;;;1.57;1.47;;;20.20;99.90;;;;;;5020494;28;20523;-81
2022/06/06 01:24:54;;;;;;;1.30;1.20;;;20.30;99.90;;;;;;5017332;28;20475;-80
2022/06/06 01:27:48;;;;;;;1.13;1.03;;;20.30;99.90;;;;;;5022926;28;20879;-81
2022/06/06 01:30:20;;;;;;;1.73;1.20;;;20.30;99.90;;;;;;5016292;28;20473;-80
2022/06/06 01:32:53;;;;;;;1.93;1.10;;;20.40;99.90;;;;;;5019214;28;20489;-80
2022/06/06 01:35:27;;;;;;;1.40;1.30;;;20.30;99.90;;;;;;5018868;28;20471;-80
2022/06/06 01:37:56;;;;;;;1.60;1.30;;;20.40;99.90;;;;;;5020165;28;20443;-81
2022/06/06 01:40:27;;;;;;;1.80;1.10;;;20.40;99.90;;;;;;5013878;28;20454;-80
2022/06/06 01:42:59;;;;;;;1.90;1.73;;;20.20;99.90;;;;;;5023659;28;20472;-81
2022/06/06 01:45:35;;;;;;;1.60;1.50;;;20.10;99.90;;;;;;5015451;28;20477;-81
2022/06/06 01:48:07;;;;;;;1.40;1.30;;;20.10;99.90;;;;;;5020748;28;20464;-81
2022/06/06 01:50:38;;;;;;;1.43;1.33;;;20.10;99.90;;;;;;5019274;28;20468;-82
2022/06/06 01:53:08;;;;;;;1.80;1.70;;;20.20;99.90;;;;;;5022397;28;20493;-81
2022/06/06 01:55:39;;;;;;;1.60;1.20;;;20.20;99.90;;;;;;5020102;28;20987;-81
2022/06/06 01:58:11;;;;;;;1.60;1.40;;;20.20;99.90;;;;;;5019036;28;20459;-81
2022/06/06 02:00:41;;;;;;;1.97;1.80;;;20.30;99.90;;;;;;5026818;28;20819;-80
2022/06/06 02:03:10;;;;;;;2.10;1.50;;;20.30;99.90;;;;;;5015941;28;20472;-79
2022/06/06 02:05:38;;;;;;;1.77;1.50;;;20.20;99.90;;;;;;5015490;28;20476;-81
2022/06/06 02:08:07;;;;;;;1.80;1.57;;;20.20;99.90;;;;;;5020620;28;20984;-81
2022/06/06 02:10:37;;;;;;;1.60;1.50;;;20.20;99.90;;;;;;5017772;28;20754;-80
2022/06/06 02:13:05;;;;;;;3.17;2.13;;;20.20;99.90;;;;;;5012975;28;20543;-80
2022/06/06 02:15:34;;;;;;;2.23;1.40;;;20.20;99.90;;;;;;5016406;28;20444;-80
2022/06/06 02:18:04;;;;;;;2.17;1.73;;;20.20;99.90;;;;;;5025352;28;20455;-81
2022/06/06 02:20:33;;;;;;;1.93;1.60;;;20.10;99.90;;;;;;5016858;28;20445;-81
2022/06/06 02:23:03;;;;;;;2.57;1.50;;;20.00;99.90;;;;;;5019068;28;20860;-81
2022/06/06 02:25:32;;;;;;;1.60;1.50;;;19.60;1.00;;;;;;5010331;28;20460;-81
2022/06/06 02:28:01;;;;;;;2.40;1.80;;;19.50;1.00;;;;;;5023058;28;20479;-81
2022/06/06 02:30:32;;;;;;;1.57;1.47;;;19.50;1.00;;;;;;5016494;28;20461;-81
2022/06/06 02:33:01;;;;;;;1.60;1.50;;;19.70;1.00;;;;;;5017913;28;20571;-81
2022/06/06 02:35:32;;;;;;;3.30;1.70;;;19.80;1.00;;;;;;5015336;28;20456;-80
2022/06/06 02:38:01;;;;;;;1.93;1.73;;;20.00;1.00;;;;;;5013482;28;20471;-81
2022/06/06 02:40:30;;;;;;;6.57;1.70;;;20.10;1.00;;;;;;5018344;28;20459;-80
2022/06/06 02:42:59;;;;;;;2.07;1.47;;;20.20;99.90;;;;;;5020390;28;20867;-81
2022/06/06 02:45:28;;;;;;;1.77;1.67;;;20.10;99.90;;;;;;5021118;28;20535;-81
2022/06/06 02:47:57;;;;;;;1.50;1.40;;;20.10;99.90;;;;;;5017612;28;20462;-81
2022/06/06 02:50:29;;;;;;;2.13;1.50;;;20.00;99.90;;;;;;5018161;28;20445;-81
2022/06/06 02:52:59;;;;;;;3.10;1.47;;;19.90;99.90;;;;;;5016088;28;20467;-80
2022/06/06 02:55:28;;;;;;;2.30;2.00;;;19.80;1.00;;;;;;5015046;28;20457;-81
2022/06/06 02:57:56;;;;;;;1.70;1.60;;;19.60;1.00;;;;;;5024177;28;21153;-81
2022/06/06 03:00:27;;;;;;;2.60;1.73;;;19.60;1.00;;;;;;5030012;28;20457;-79
2022/06/06 03:02:56;;;;;;;2.47;1.60;;;19.50;1.00;;;;;;5029794;28;20457;-80
2022/06/06 03:05:35;;;;;;;1.87;1.77;;;19.40;1.00;;;;;;5029512;28;20948;-80
2022/06/06 03:08:16;;;;;;;1.50;1.40;;;19.20;1.00;;;;;;5029894;28;20456;-80
2022/06/06 03:10:55;;;;;;;1.97;1.30;;;19.00;1.00;;;;;;5031215;28;20468;-80
2022/06/06 03:13:36;;;;;;;2.00;1.67;;;19.00;1.00;;;;;;5032524;28;20864;-80
2022/06/06 03:22:27;;;;;;;1.97;1.80;;;18.40;99.90;;;;;;5023671;28;20472;-80
2022/06/06 03:25:06;;;;;;;2.30;2.10;;;18.60;99.90;;;;;;5031094;28;20510;-81
2022/06/06 03:27:44;;;;;;;1.97;1.77;;;18.90;6.80;;;;;;5026534;28;20451;-81
2022/06/06 03:30:22;;;;;;;2.50;1.57;;;19.00;1.00;;;;;;5031230;28;20828;-80
2022/06/06 03:33:02;;;;;;;1.47;1.20;;;19.20;1.00;;;;;;5017484;28;20882;-81
2022/06/06 03:35:38;;;;;;;1.40;1.30;;;19.40;1.00;;;;;;5031445;28;20444;-81
2022/06/06 03:38:12;;;;;;;1.60;1.50;;;19.50;1.00;;;;;;5022643;28;20460;-80
2022/06/06 03:40:52;;;;;;;1.60;1.40;;;19.60;1.00;;;;;;5027631;28;20448;-81
2022/06/06 03:43:27;;;;;;;1.70;1.60;;;19.70;1.00;;;;;;5031749;28;20463;-81
2022/06/06 03:46:05;;;;;;;1.40;1.30;;;19.70;1.00;;;;;;5025697;28;21233;-81
2022/06/06 03:48:45;;;;;;;1.73;1.40;;;19.80;1.00;;;;;;5023891;28;21153;-82
2022/06/06 03:51:22;;;;;;;2.17;1.60;;;19.80;1.00;;;;;;5025758;28;20507;-81
2022/06/06 03:54:02;;;;;;;1.43;1.33;;;19.80;1.00;;;;;;5030259;28;20484;-82
2022/06/06 03:56:44;;;;;;;1.77;1.67;;;19.80;1.00;;;;;;5029164;28;20452;-81
2022/06/06 03:59:15;;;;;;;1.63;1.53;;;19.80;1.00;;;;;;5033721;28;20456;-82
2022/06/06 04:01:45;;;;;;;2.50;1.40;;;19.80;1.00;;;;;;5015360;28;20489;-82
2022/06/06 04:04:15;;;;;;;1.50;1.40;;;19.70;1.00;;;;;;5015565;28;21146;-82
2022/06/06 04:06:44;;;;;;;1.50;1.40;;;19.70;1.00;;;;;;5013598;28;20468;-81
2022/06/06 04:09:12;;;;;;;1.50;1.40;;;19.80;1.00;;;;;;5024350;28;20445;-81
2022/06/06 04:11:50;;;;;;;1.73;1.63;;;19.70;1.00;;;;;;5029320;28;20472;-80
2022/06/06 04:14:29;;;;;;;1.97;1.43;;;19.60;1.00;;;;;;5032158;28;20471;-82
2022/06/06 04:17:11;;;;;;;2.00;1.50;;;19.60;1.00;;;;;;5020750;28;20516;-82
2022/06/06 04:19:52;;;;;;;1.53;1.43;;;19.60;1.00;;;;;;5023981;28;20832;-82
2022/06/06 04:22:28;;;;;;;2.50;1.80;;;19.60;1.00;;;;;;5027244;28;20542;-82
2022/06/06 04:25:09;;;;;;;2.03;1.93;;;19.60;1.00;;;;;;5027811;28;20977;-82
2022/06/06 04:27:48;;;;;;;2.63;1.30;;;19.60;1.00;;;;;;5020138;28;20461;-83
2022/06/06 04:30:23;;;;;;;1.83;1.73;;;19.70;1.00;;;;;;5020319;28;21051;-82
2022/06/06 04:33:03;;;;;;;1.80;1.70;;;19.80;1.00;;;;;;5014592;28;20465;-82
2022/06/06 04:35:39;;;;;;;2.03;1.80;;;19.80;1.00;;;;;;5017895;28;20483;-83
2022/06/06 04:38:17;;;;;;;1.50;1.33;;;19.80;1.00;;;;;;5017891;28;20464;-82
2022/06/06 04:40:50;;;;;;;1.63;1.47;;;19.80;1.00;;;;;;5022088;28;20464;-81
2022/06/06 04:43:29;;;;;;;1.90;1.47;;;19.80;1.00;;;;;;5018605;28;20479;-81
2022/06/06 04:46:04;;;;;;;2.40;1.77;;;19.80;1.00;;;;;;5019927;28;20476;-81
2022/06/06 04:48:35;;;;;;;1.50;1.40;;;19.80;1.00;;;;;;5017701;28;20445;-77
2022/06/06 04:51:05;;;;;;;4.13;1.73;;;19.80;1.00;;;;;;5017399;28;20468;-77
2022/06/06 04:53:39;;;;;;;10.00;2.00;;;19.80;1.00;;;;;;5016652;28;20475;-78
2022/06/06 04:56:09;;;;;;;2.33;2.13;;;19.70;1.00;;;;;;5021951;28;20579;-81
2022/06/06 04:58:40;;;;;;;1.73;1.63;;;19.60;1.00;;;;;;5013366;28;20449;-81
2022/06/06 05:01:12;;;;;;;1.83;1.73;;;19.50;1.00;;;;;;5015036;28;20450;-81
2022/06/06 05:03:40;;;;;;;1.70;1.60;;;19.40;1.00;;;;;;5020524;28;20437;-81
2022/06/06 05:06:32;;;;;;;2.40;1.53;;;19.40;1.00;;;;;;5019455;28;20448;-81
2022/06/06 05:09:14;;;;;;;2.03;1.70;;;19.60;1.00;;;;;;5010087;28;20460;-81
2022/06/06 05:11:52;;;;;;;1.90;1.70;;;19.60;1.00;;;;;;5012539;28;20491;-80
2022/06/06 05:14:39;;;;;;;2.30;1.87;;;19.40;1.00;;;;;;5014110;28;20492;-81
2022/06/06 05:17:31;;;;;;;2.73;1.70;;;19.30;1.00;;;;;;5018611;28;21092;-81
2022/06/06 05:20:13;;;;;;;2.23;1.93;;;19.30;99.90;;;;;;5027380;28;20444;-81
2022/06/06 05:23:13;;;;;;;2.17;2.07;;;19.50;62.90;;;;;;5028390;28;20551;-81
2022/06/06 05:25:55;;;;;;;1.63;1.53;;;19.50;34.40;;;;;;5026407;28;20886;-80
2022/06/06 05:28:48;;;;;;;2.27;2.00;;;19.50;1.00;;;;;;5018834;28;20448;-81
2022/06/06 05:31:32;;;;;;;1.93;1.83;;;19.50;14.20;;;;;;5015040;28;20451;-81
2022/06/06 05:34:06;;;;;;;1.70;1.60;;;19.30;99.90;;;;;;5034623;28;20992;-81
2022/06/06 05:36:53;;;;;;;1.60;1.50;;;19.30;99.90;;;;;;5027340;28;21123;-81
2022/06/06 05:39:45;;;;;;;2.30;1.93;;;19.30;99.90;;;;;;5020412;28;20459;-81
2022/06/06 05:42:24;;;;;;;2.40;1.93;;;19.40;99.90;;;;;;5026345;28;20500;-81
2022/06/06 05:45:03;;;;;;;2.43;1.70;;;19.60;90.40;;;;;;5022965;28;20459;-81
2022/06/06 05:47:41;;;;;;;2.10;1.50;;;19.70;1.00;;;;;;5023024;28;20463;-81
2022/06/06 05:50:25;;;;;;;1.67;1.57;;;19.60;23.40;;;;;;5020270;28;20471;-81
2022/06/06 05:53:15;;;;;;;2.60;2.33;;;19.80;33.70;;;;;;5022013;28;20476;-81
2022/06/06 05:55:57;;;;;;;4.40;1.40;;;19.90;1.00;;;;;;5020505;28;20480;-81
2022/06/06 05:58:55;;;;;;;2.87;2.30;;;20.00;1.00;;;;;;5014723;28;20441;-81
2022/06/06 06:01:49;;;;;;;1.70;1.60;;;20.00;1.00;;;;;;5023988;28;20997;-81
2022/06/06 06:04:42;;;;;;;1.90;1.80;;;20.20;1.00;;;;;;5010661;28;20541;-81
2022/06/06 06:07:22;;;;;;;4.00;2.37;;;20.20;1.00;;;;;;5011665;28;20444;-81
2022/06/06 06:10:07;;;;;;;2.03;1.70;;;20.20;1.00;;;;;;5022282;28;20472;-81
2022/06/06 06:13:15;;;;;;;1.70;1.60;;;20.10;1.00;;;;;;5016976;28;20487;-81
2022/06/06 06:15:45;;;;;;;2.00;1.70;;;20.00;1.00;;;;;;5002929;28;20480;-81
2022/06/06 06:18:19;;;;;;;1.93;1.60;;;19.90;1.00;;;;;;5018047;28;20468;-81
2022/06/06 06:20:54;;;;;;;3.07;2.03;;;19.80;1.00;;;;;;5023224;28;20461;-81
2022/06/06 06:23:25;;;;;;;2.13;1.93;;;19.90;1.00;;;;;;5021036;28;20547;-81
2022/06/06 06:25:55;;;;;;;4.53;2.00;;;20.00;1.00;;;;;;5012210;28;20452;-81
2022/06/06 06:28:27;;;;;;;2.80;1.60;;;20.10;1.00;;;;;;5008087;28;20858;-81
2022/06/06 06:31:03;;;;;;;2.43;1.77;;;20.20;1.00;;;;;;5027135;28;20469;-81
2022/06/06 06:33:49;;;;;;;2.27;2.07;;;20.20;1.00;;;;;;5027166;28;20475;-81
2022/06/06 06:36:41;;;;;;;3.40;2.00;;;20.30;1.00;;;;;;5023240;28;20452;-81
2022/06/06 06:39:45;;;;;;;1.90;1.70;;;20.40;1.00;;;;;;5027735;28;21025;-82
2022/06/06 06:42:32;;;;;;;1.97;1.87;;;20.60;1.00;;;;;;4988624;28;20484;-81
2022/06/06 06:45:03;;;;;;;1.80;1.70;;;20.60;1.00;;;;;;5020052;28;20452;-81
2022/06/06 06:47:34;;;;;;;2.07;1.87;;;20.60;1.00;;;;;;5025389;28;20464;-81
2022/06/06 06:50:09;;;;;;;2.23;1.67;;;20.70;1.00;;;;;;5026999;28;20555;-82
2022/06/06 06:52:58;;;;;;;2.13;1.93;;;20.80;1.00;;;;;;5019196;28;20571;-82
2022/06/06 06:55:37;;;;;;;2.17;1.60;;;20.90;1.00;;;;;;5017399;28;20508;-81
2022/06/06 06:58:30;;;;;;;2.27;2.07;;;20.90;1.00;;;;;;5027112;28;20456;-82
2022/06/06 07:01:02;;;;;;;2.43;1.90;;;20.90;99.90;;;;;;5026423;28;20539;-81
2022/06/06 07:09:47;;;;;;;1.80;1.70;;;21.00;99.90;;;;;;5023965;28;20459;-81
2022/06/06 07:12:27;;;;;;;1.90;1.70;;;20.90;99.90;;;;;;5013021;28;20523;-82
2022/06/06 07:15:09;;;;;;;1.73;1.63;;;21.00;99.90;;;;;;5026780;28;20468;-81
2022/06/06 07:17:43;;;;;;;2.33;1.80;;;20.90;99.90;;;;;;5027578;28;20505;-81
2022/06/06 07:20:14;;;;;;;2.23;2.03;;;20.70;99.90;;;;;;5026982;28;20873;-81
2022/06/06 07:23:02;;;;;;;2.00;1.90;;;20.70;99.90;;;;;;5016657;28;20482;-81
2022/06/06 07:25:37;;;;;;;1.87;1.77;;;20.90;99.90;;;;;;5024064;28;20447;-81
2022/06/06 07:28:07;;;;;;;3.90;1.60;;;21.10;99.90;;;;;;5026108;28;20570;-81
2022/06/06 07:30:41;;;;;;;2.13;1.87;;;21.00;99.90;;;;;;5027086;28;20514;-81
2022/06/06 07:33:29;;;;;;;4.40;1.60;;;21.00;99.90;;;;;;5019328;28;20494;-82
2022/06/06 07:36:09;;;;;;;4.20;1.80;;;20.90;99.90;;;;;;5013270;28;20480;-81
2022/06/06 07:38:53;;;;;;;2.40;2.20;;;21.10;99.90;;;;;;5024804;28;20454;-81
2022/06/06 07:41:31;;;;;;;1.83;1.73;;;21.10;99.90;;;;;;5018431;28;20444;-80
2022/06/06 07:44:12;;;;;;;2.70;1.77;;;21.10;99.90;;;;;;5026383;28;20464;-81
2022/06/06 07:46:53;;;;;;;4.67;2.50;;;21.20;99.90;;;;;;5030006;28;20445;-81
2022/06/06 07:49:27;;;;;;;2.17;2.07;;;21.30;99.90;;;;;;5030224;28;20552;-82
2022/06/06 07:52:04;;;;;;;2.03;1.83;;;21.40;99.90;;;;;;5029623;28;20556;-81
2022/06/06 07:54:44;;;;;;;2.23;2.00;;;21.50;99.90;;;;;;5019361;28;20454;-81
2022/06/06 07:57:22;;;;;;;2.03;1.93;;;21.60;99.90;;;;;;5024480;28;20455;-81
2022/06/06 08:00:06;;;;;;;4.03;1.80;;;21.60;99.90;;;;;;5027291;28;20503;-81
2022/06/06 08:02:44;;;;;;;3.40;2.30;;;21.50;99.90;;;;;;5025364;28;20489;-81
2022/06/06 08:05:27;;;;;;;1.70;1.60;;;21.40;99.90;;;;;;5026956;28;20442;-81
2022/06/06 08:08:04;;;;;;;1.70;1.60;;;21.60;99.90;;;;;;5030305;28;20453;-82
2022/06/06 08:10:40;;;;;;;2.80;1.83;;;21.50;99.90;;;;;;5024291;28;20452;-81
2022/06/06 08:13:33;;;;;;;1.53;1.43;;;21.50;99.90;;;;;;5027295;28;20519;-81
2022/06/06 08:16:13;;;;;;;1.93;1.83;;;21.50;99.90;;;;;;5027840;28;20535;-81
2022/06/06 08:19:18;;;;;;;4.90;1.70;;;21.60;99.90;;;;;;5027597;28;20509;-81
2022/06/06 08:21:49;;;;;;;3.50;1.20;;;21.60;99.90;;;;;;5023391;28;20554;-81
2022/06/06 08:24:22;;;;;;;1.40;1.30;;;21.50;99.90;;;;;;5028793;28;20489;-81
2022/06/06 08:27:14;;;;;;;1.20;1.03;;;21.60;99.90;;;;;;5020240;28;20493;-81
2022/06/06 08:29:45;;;;;;;1.33;1.20;;;21.60;99.90;;;;;;5018173;28;20835;-81
2022/06/06 08:32:14;;;;;;;1.93;1.43;;;21.80;99.90;;;;;;5025531;28;20916;-81
2022/06/06 08:34:42;;;;;;;1.43;1.33;;;21.80;99.90;;;;;;5026695;28;20464;-81
2022/06/06 08:37:36;;;;;;;2.73;1.97;;;21.90;99.90;;;;;;5021298;28;20462;-81
2022/06/06 08:40:29;;;;;;;2.60;1.20;;;21.90;99.90;;;;;;5017078;28;20461;-81
2022/06/06 08:43:01;;;;;;;1.57;1.47;;;22.00;99.90;;;;;;5027921;28;20549;-82
2022/06/06 08:45:51;;;;;;;1.67;1.30;;;22.10;99.90;;;;;;5020450;28;20453;-82
2022/06/06 08:48:50;;;;;;;1.27;1.20;;;22.10;99.90;;;;;;5024031;28;20452;-81
2022/06/06 08:51:30;;;;;;;1.17;1.10;;;22.00;99.90;;;;;;5021262;28;20476;-81
2022/06/06 08:54:32;;;;;;;1.43;1.17;;;22.00;99.90;;;;;;5028260;28;20466;-82
2022/06/06 08:57:33;;;;;;;2.10;1.27;;;22.00;99.90;;;;;;5028957;28;20559;-82
2022/06/06 09:00:21;;;;;;;1.00;1.00;;;22.10;99.90;;;;;;5025708;28;20968;-81
2022/06/06 09:03:36;;;;;;;1.40;1.30;;;22.20;99.90;;;;;;5019123;28;20556;-82
2022/06/06 09:06:37;;;;;;;1.50;1.40;;;22.20;99.90;;;;;;5019455;28;20598;-81
2022/06/06 09:09:42;;;;;;;1.30;1.10;;;22.40;99.90;;;;;;5009232;28;20959;-81
2022/06/06 09:12:33;;;;;;;1.83;1.10;;;22.50;99.90;;;;;;5026301;28;20483;-82
2022/06/06 09:15:32;;;;;;;1.40;1.13;;;22.40;99.90;;;;;;5028404;28;20463;-81
2022/06/06 09:18:52;;;;;;;1.40;1.13;;;22.50;99.90;;;;;;5029135;28;20458;-81
2022/06/06 09:21:58;;;;;;;1.50;1.40;;;22.30;99.90;;;;;;5023978;28;20465;-81
2022/06/06 09:25:00;;;;;;;1.30;1.20;;;22.40;99.90;;;;;;5022416;28;20498;-81
2022/06/06 09:27:56;;;;;;;1.27;1.17;;;22.40;99.90;;;;;;5027894;28;20460;-81
2022/06/06 09:30:49;;;;;;;1.50;1.40;;;22.50;99.90;;;;;;5028666;28;20959;-82
2022/06/06 09:34:03;;;;;;;1.67;1.40;;;22.60;99.90;;;;;;5021663;28;20504;-81
2022/06/06 09:36:46;;;;;;;1.40;1.10;;;22.70;99.90;;;;;;5028091;28;21090;-81
2022/06/06 09:39:33;;;;;;;1.30;1.20;;;22.80;99.90;;;;;;5020818;28;20551;-81
2022/06/06 09:42:11;;;;;;;1.50;1.30;;;22.90;99.90;;;;;;5023072;28;20469;-82
2022/06/06 09:45:00;;;;;;;1.10;1.10;;;22.90;99.90;;;;;;5024609;28;20501;-82
2022/06/06 09:48:04;;;;;;;1.30;1.20;;;22.90;99.90;;;;;;5023665;28;20484;-82
2022/06/06 09:51:06;;;;;;;1.30;1.20;;;23.10;99.90;;;;;;5028967;28;20455;-81
2022/06/06 10:00:22;;;;;;;1.97;1.47;;;22.90;99.90;;;;;;5015124;28;20495;-81
2022/06/06 10:03:42;;;;;;;1.37;1.27;;;22.90;99.90;;;;;;5028181;28;20584;-82
2022/06/06 10:07:00;;;;;;;1.67;1.57;;;22.90;99.90;;;;;;4973738;28;20453;-81
2022/06/06 10:10:00;;;;;;;1.40;1.30;;;23.00;99.90;;;;;;4973711;28;21061;-82
2022/06/06 10:12:46;;;;;;;1.27;1.17;;;23.10;99.90;;;;;;5028031;28;20484;-82
2022/06/06 10:15:43;;;;;;;1.47;1.20;;;23.20;99.90;;;;;;5025825;28;20531;-82
2022/06/06 10:18:31;;;;;;;1.30;1.27;;;23.30;99.90;;;;;;5020384;28;20527;-81
2022/06/06 10:21:17;;;;;;;1.40;1.17;;;23.20;99.90;;;;;;5028500;28;20485;-82
2022/06/06 10:24:08;;;;;;;1.57;1.47;;;23.20;99.90;;;;;;5021601;28;20452;-84
2022/06/06 10:27:04;;;;;;;2.03;1.37;;;23.40;99.90;;;;;;5024944;28;21239;-81
2022/06/06 10:30:12;;;;;;;1.97;1.87;;;23.40;99.90;;;;;;5027937;28;20548;-81
2022/06/06 10:33:06;;;;;;;1.20;1.13;;;23.40;99.90;;;;;;5021373;28;21466;-82
2022/06/06 10:35:48;;;;;;;1.30;1.20;;;23.40;99.90;;;;;;5027600;28;20492;-82
2022/06/06 10:38:36;;;;;;;1.30;1.20;;;23.40;99.90;;;;;;5026846;28;20452;-81
2022/06/06 10:41:19;;;;;;;1.33;1.00;;;23.30;99.90;;;;;;5028023;28;20444;-82
2022/06/06 10:44:15;;;;;;;1.40;1.30;;;23.30;99.90;;;;;;5027111;28;20554;-82
2022/06/06 10:46:56;;;;;;;1.63;1.20;;;23.30;99.90;;;;;;5013262;28;20459;-82
2022/06/06 10:49:37;;;;;;;1.20;1.10;;;23.30;99.90;;;;;;5027015;28;20472;-82
2022/06/06 10:52:39;;;;;;;2.47;1.20;;;23.40;99.90;;;;;;5025420;28;20487;-81
2022/06/06 10:55:45;;;;;;;1.10;1.10;;;23.40;99.90;;;;;;5026427;28;20460;-81
2022/06/06 10:58:58;;;;;;;1.50;1.27;;;23.40;99.90;;;;;;5025709;28;20575;-81
2022/06/06 11:02:14;;;;;;;1.47;1.10;;;23.40;99.90;;;;;;5027348;28;20543;-81
2022/06/06 11:05:22;;;;;;;1.13;1.03;;;23.50;99.90;;;;;;5002737;28;20980;-82
2022/06/06 11:08:32;;;;;;;1.20;1.20;;;23.60;99.90;;;;;;5021745;28;20460;-82
2022/06/06 11:11:28;;;;;;;0.90;0.90;;;23.60;99.90;;;;;;5023691;28;20464;-82
2022/06/06 11:14:04;;;;;;;1.47;1.33;;;23.60;99.90;;;;;;5026595;28;20548;-81
2022/06/06 11:17:20;;;;;;;1.07;1.07;;;23.50;99.90;;;;;;5019098;28;21120;-82
2022/06/06 11:20:34;;;;;;;1.40;1.30;;;23.50;99.90;;;;;;5042011;28;21261;-82
2022/06/06 11:23:32;;;;;;;1.10;1.07;;;23.50;99.90;;;;;;5020630;28;20476;-82
2022/06/06 11:26:28;;;;;;;1.60;1.37;;;23.50;99.90;;;;;;5022465;28;20530;-82
2022/06/06 11:29:23;;;;;;;1.13;1.10;;;23.50;99.90;;;;;;5020615;28;20535;-82
2022/06/06 11:32:02;;;;;;;1.20;1.10;;;23.40;99.90;;;;;;5021621;28;20492;-82
2022/06/06 11:35:12;;;;;;;1.30;1.20;;;23.40;99.90;;;;;;5015508;28;20457;-81
2022/06/06 11:38:07;;;;;;;1.00;1.00;;;23.10;99.90;;;;;;5020800;28;20480;-82
2022/06/06 11:41:23;;;;;;;1.20;1.10;;;23.20;99.90;;;;;;5019831;28;20463;-82
2022/06/06 11:44:33;;;;;;;0.90;0.90;;;23.30;99.90;;;;;;5016302;28;20515;-82
2022/06/06 11:47:40;;;;;;;1.30;1.17;;;23.30;99.90;;;;;;5016952;28;20547;-82
2022/06/06 11:50:43;;;;;;;1.23;1.13;;;23.40;99.90;;;;;;5011673;28;20484;-81
2022/06/06 11:54:06;;;;;;;1.20;1.10;;;23.30;99.90;;;;;;5009766;28;20570;-81
2022/06/06 11:57:24;;;;;;;1.70;1.40;;;22.90;99.90;;;;;;5021696;28;20464;-82
2022/06/06 12:00:14;;;;;;;1.20;1.10;;;23.10;99.90;;;;;;5030611;28;20478;-82
2022/06/06 12:03:03;;;;;;;1.30;1.20;;;23.10;99.90;;;;;;5018204;28;20477;-82
2022/06/06 12:05:56;;;;;;;1.70;1.20;;;23.10;99.90;;;;;;5018308;28;20514;-82
2022/06/06 12:08:50;;;;;;;1.80;1.40;;;23.20;99.90;;;;;;5023962;28;20453;-81
2022/06/06 12:11:59;;;;;;;1.30;1.20;;;23.10;99.90;;;;;;5024230;28;20873;-82
2022/06/06 12:15:01;;;;;;;2.30;1.37;;;23.10;99.90;;;;;;5025149;28;20535;-81
2022/06/06 12:17:43;;;;;;;1.20;1.10;;;23.00;99.90;;;;;;5011437;28;21027;-82
2022/06/06 12:20:51;;;;;;;1.40;1.13;;;23.10;99.90;;;;;;5020007;28;20452;-81
2022/06/06 12:23:28;;;;;;;1.43;1.20;;;23.30;99.90;;;;;;4986800;28;20474;-82
2022/06/06 12:26:18;;;;;;;1.13;1.03;;;23.50;99.90;;;;;;5018976;28;20465;-81
2022/06/06 12:29:28;;;;;;;1.10;1.00;;;23.50;99.90;;;;;;5029099;28;20456;-81
2022/06/06 12:32:18;;;;;;;2.37;1.50;;;23.70;99.90;;;;;;5023750;28;20867;-82
2022/06/06 12:34:54;;;;;;;1.57;1.47;;;23.80;99.90;;;;;;5026808;28;20463;-82
2022/06/06 12:37:29;;;;;;;1.40;1.30;;;23.90;99.90;;;;;;5020315;28;20481;-81
2022/06/06 12:40:08;;;;;;;1.00;1.00;;;23.80;99.90;;;;;;5016738;28;20464;-82
2022/06/06 12:42:49;;;;;;;2.43;1.13;;;23.90;99.90;;;;;;5021633;28;20479;-82
2022/06/06 12:45:52;;;;;;;0.90;0.90;;;23.90;99.90;;;;;;5022014;28;20453;-82
2022/06/06 12:48:56;;;;;;;1.20;1.10;;;24.00;99.90;;;;;;5011815;28;20481;-82
2022/06/06 12:51:34;;;;;;;1.17;1.07;;;23.80;99.90;;;;;;5020849;28;20448;-82
2022/06/06 12:57:28;;;;;;;1.43;1.03;;;23.70;99.90;;;;;;5025922;28;20495;-81
2022/06/06 13:00:04;;;;;;;1.30;1.20;;;23.60;99.90;;;;;;5027939;28;20460;-82
2022/06/06 13:02:47;;;;;;;1.13;1.10;;;23.60;99.90;;;;;;5027629;28;20476;-82
2022/06/06 13:05:32;;;;;;;1.00;1.00;;;23.70;99.90;;;;;;5021352;28;20449;-82
2022/06/06 13:08:21;;;;;;;1.20;1.00;;;23.70;99.90;;;;;;5010955;28;20451;-82
2022/06/06 13:11:05;;;;;;;1.30;1.20;;;23.80;99.90;;;;;;5021274;28;20465;-81
2022/06/06 13:13:48;;;;;;;1.33;1.23;;;23.80;99.90;;;;;;5022884;28;20469;-82
2022/06/06 13:16:28;;;;;;;1.27;1.17;;;23.90;99.90;;;;;;5019676;28;20464;-82
2022/06/06 13:19:24;;;;;;;1.83;1.20;;;24.00;99.90;;;;;;5021333;28;20509;-82
2022/06/06 13:22:10;;;;;;;1.13;1.03;;;24.00;99.90;;;;;;5024367;28;20491;-82
2022/06/06 13:25:15;;;;;;;1.83;1.00;;;24.00;99.90;;;;;;5014084;28;20837;-82
2022/06/06 13:28:01;;;;;;;1.20;1.10;;;23.80;99.90;;;;;;5016005;28;20441;-82
2022/06/06 13:30:38;;;;;;;1.17;1.07;;;23.80;99.90;;;;;;5018148;28;20465;-82
2022/06/06 13:33:41;;;;;;;1.10;1.10;;;23.80;99.90;;;;;;5018182;28;21030;-82
2022/06/06 13:36:18;;;;;;;1.10;1.10;;;23.80;99.90;;;;;;5023289;28;20456;-82
2022/06/06 13:38:59;;;;;;;1.37;1.27;;;23.70;99.90;;;;;;5020185;28;20484;-81
2022/06/06 13:41:42;;;;;;;1.10;1.00;;;23.70;99.90;;;;;;5012930;28;22092;-82
2022/06/06 13:44:30;;;;;;;1.00;0.90;;;23.60;99.90;;;;;;5009254;28;20791;-80
2022/06/06 13:47:11;;;;;;;1.20;1.10;;;23.70;99.90;;;;;;5016547;28;20520;-81
2022/06/06 13:49:56;;;;;;;1.20;1.10;;;23.60;99.90;;;;;;5017896;28;20446;-82
2022/06/06 13:52:42;;;;;;;1.90;1.20;;;23.60;99.90;;;;;;5017367;28;20508;-82
2022/06/06 13:55:26;;;;;;;1.00;0.97;;;23.60;99.90;;;;;;5021831;28;20452;-82
2022/06/06 13:58:10;;;;;;;1.17;1.10;;;23.70;99.90;;;;;;5021555;28;21183;-82
2022/06/06 14:00:47;;;;;;;1.40;1.30;;;23.70;99.90;;;;;;5016007;28;20452;-82
2022/06/06 14:03:34;;;;;;;1.37;1.20;;;23.70;99.90;;;;;;5015856;28;20570;-82
2022/06/06 14:06:24;;;;;;;1.03;1.03;;;23.70;99.90;;;;;;5035961;28;20460;-82
2022/06/06 14:08:54;;;;;;;1.40;1.30;;;23.70;99.90;;;;;;5015840;28;20452;-82
2022/06/06 14:11:56;;;;;;;1.97;1.50;;;23.70;99.90;;;;;;5020315;28;20535;-82
2022/06/06 14:14:26;;;;;;;1.23;1.10;;;23.70;99.90;;;;;;5011051;28;20466;-82
2022/06/06 14:17:14;;;;;;;1.90;1.10;;;23.70;99.90;;;;;;5023486;28;20464;-81
2022/06/06 14:20:07;;;;;;;1.30;1.20;;;23.70;99.90;;;;;;5022395;28;20507;-81
2022/06/06 14:22:39;;;;;;;1.73;1.40;;;23.70;99.90;;;;;;5014033;28;20480;-82
2022/06/06 14:25:10;;;;;;;1.60;1.27;;;23.60;99.90;;;;;;5014205;28;20499;-82
2022/06/06 14:27:41;;;;;;;1.93;1.23;;;23.70;99.90;;;;;;5010293;28;20462;-82
2022/06/06 14:30:16;;;;;;;1.43;1.20;;;23.70;99.90;;;;;;5017513;28;20820;-82
2022/06/06 14:32:54;;;;;;;1.30;1.20;;;23.80;99.90;;;;;;5018668;28;20973;-81
2022/06/06 14:35:34;;;;;;;1.40;1.30;;;23.80;99.90;;;;;;5021184;28;21233;-82